Terminal Aerodrome Forecast
Issued by NWS Paducah, KY

Home | Current Version | Previous Version | Text Only | Print | Product List | Glossary On
Versions: 1 2 3 4 5 6 7 8 9 10 11 12 13 14 15 16 17 18 19
000
FTUS43 KPAH 261423 AAA
TAFEVV
TAF AMD
KEVV 261423Z 2614/2712 22005KT 6SM HZ VCTS SCT025CB
      TEMPO 2615/2616 VRB12G22KT 3SM TSRA BR BKN025CB
     FM261600 VRB03KT P6SM -SHRA VCTS BKN035CB
     FM261800 VRB03KT P6SM BKN040
     FM270000 00000KT 6SM HZ SCT080 SCT250=

USA.gov is the U.S. government's official web portal to all federal, state and local government web resources and services.